Time;durP1;ratioP1;P1;durP2;ratioP2;P2;SDS_P1;SDS_P2;PMS_P1;PMS_P2;Temp;Humidity;BMP_temperature;BMP_pressure;BME280_temperature;BME280_humidity;BME280_pressure;Samples;Min_cycle;Max_cycle;Signal;HPM_P1;HPM_P2
2023/08/11 00:00:21;;;;;;;8.57;3.75;;;19.30;99.90;;;;;;4908512;29;20224;-68
2023/08/11 00:02:50;;;;;;;9.63;4.07;;;19.30;99.90;;;;;;4900219;29;20220;-68
2023/08/11 00:05:17;;;;;;;7.75;3.90;;;19.20;99.90;;;;;;4884649;29;20198;-68
2023/08/11 00:07:45;;;;;;;4.78;3.70;;;19.20;99.90;;;;;;4890834;29;20193;-65
2023/08/11 00:10:12;;;;;;;17.80;10.93;;;19.10;99.90;;;;;;4889113;29;20280;-65
2023/08/11 00:12:39;;;;;;;5.65;4.15;;;19.10;99.90;;;;;;4906066;29;20181;-63
2023/08/11 00:15:06;;;;;;;9.52;4.20;;;19.00;99.90;;;;;;4897212;29;20228;-67
2023/08/11 00:17:33;;;;;;;6.55;3.78;;;18.90;99.90;;;;;;4905522;29;20478;-70
2023/08/11 00:19:59;;;;;;;9.13;3.70;;;18.80;99.90;;;;;;4896646;29;20221;-68
2023/08/11 00:22:25;;;;;;;6.78;4.15;;;18.70;99.90;;;;;;4889959;29;20237;-67
2023/08/11 00:24:51;;;;;;;6.88;4.13;;;18.70;99.90;;;;;;4893863;29;20200;-67
2023/08/11 00:27:16;;;;;;;6.20;4.10;;;18.60;99.90;;;;;;4889042;29;20194;-68
2023/08/11 00:29:42;;;;;;;8.18;4.30;;;18.50;99.90;;;;;;4895855;29;20213;-67
2023/08/11 00:32:08;;;;;;;7.95;4.50;;;18.40;99.90;;;;;;4903766;29;20280;-67
2023/08/11 00:34:34;;;;;;;10.88;4.55;;;18.40;99.90;;;;;;4897026;29;20220;-67
2023/08/11 00:37:01;;;;;;;18.45;5.20;;;18.30;99.90;;;;;;4891684;29;20200;-68
2023/08/11 00:39:27;;;;;;;7.55;4.68;;;18.30;99.90;;;;;;4898009;29;20557;-68
2023/08/11 00:41:53;;;;;;;8.55;4.35;;;18.20;99.90;;;;;;4891804;29;20196;-67
2023/08/11 00:44:19;;;;;;;7.90;4.60;;;18.10;99.90;;;;;;4898875;29;20675;-68
2023/08/11 00:46:45;;;;;;;10.70;4.30;;;18.10;99.90;;;;;;4866960;29;20700;-68
2023/08/11 00:49:14;;;;;;;7.75;5.05;;;18.00;99.90;;;;;;4895899;29;20260;-67
2023/08/11 00:51:40;;;;;;;10.65;4.82;;;18.00;99.90;;;;;;4898699;29;20223;-67
2023/08/11 00:54:10;;;;;;;9.30;5.45;;;17.90;99.90;;;;;;4896179;29;20216;-67
2023/08/11 00:56:36;;;;;;;6.68;4.65;;;17.90;99.90;;;;;;4890255;29;20254;-68
2023/08/11 00:59:04;;;;;;;10.60;5.60;;;17.90;99.90;;;;;;4897440;29;20268;-67
2023/08/11 01:01:29;;;;;;;9.60;5.47;;;17.80;99.90;;;;;;4872270;29;20280;-68
2023/08/11 01:03:57;;;;;;;8.27;5.95;;;17.80;99.90;;;;;;4893912;29;20577;-68
2023/08/11 01:06:36;;;;;;;9.77;5.85;;;17.80;99.90;;;;;;4897333;29;20288;-67
2023/08/11 01:09:28;;;;;;;10.00;6.07;;;17.70;99.90;;;;;;4879609;29;20184;-67
2023/08/11 01:12:37;;;;;;;13.02;6.43;;;17.70;99.90;;;;;;4849465;29;20669;-65
2023/08/11 01:15:16;;;;;;;10.52;6.15;;;17.60;99.90;;;;;;4895674;29;20185;-66
2023/08/11 01:17:47;;;;;;;12.80;6.75;;;17.60;99.90;;;;;;4909628;29;20236;-66
2023/08/11 01:20:16;;;;;;;11.10;7.85;;;17.60;99.90;;;;;;4872118;29;20602;-67
2023/08/11 01:22:48;;;;;;;13.70;7.97;;;17.50;99.90;;;;;;4897500;29;20200;-68
2023/08/11 01:25:15;;;;;;;13.02;7.15;;;17.50;99.90;;;;;;4895195;29;20280;-67
2023/08/11 01:27:46;;;;;;;11.63;8.10;;;17.50;99.90;;;;;;4885644;29;20294;-67
2023/08/11 01:30:13;;;;;;;12.23;8.32;;;17.40;99.90;;;;;;4890939;29;20188;-67
2023/08/11 01:32:39;;;;;;;12.82;8.30;;;17.40;99.90;;;;;;4893187;29;20211;-68
2023/08/11 01:35:06;;;;;;;13.73;8.15;;;17.40;99.90;;;;;;4890225;29;20649;-67
2023/08/11 01:37:33;;;;;;;11.15;8.82;;;17.40;99.90;;;;;;4895528;29;20199;-67
2023/08/11 01:39:58;;;;;;;13.68;8.65;;;17.30;99.90;;;;;;4897371;29;20248;-68
2023/08/11 01:42:25;;;;;;;11.10;8.57;;;17.30;99.90;;;;;;4890587;29;20570;-67
2023/08/11 01:44:51;;;;;;;12.60;8.43;;;17.30;99.90;;;;;;4897085;29;20202;-67
2023/08/11 01:47:19;;;;;;;12.27;8.95;;;17.30;99.90;;;;;;4878025;29;20196;-68
2023/08/11 01:49:47;;;;;;;12.10;8.68;;;17.20;99.90;;;;;;4887016;29;20189;-71
2023/08/11 01:52:13;;;;;;;14.82;9.23;;;17.20;99.90;;;;;;4883519;29;20203;-70
2023/08/11 01:54:42;;;;;;;15.85;10.02;;;17.20;99.90;;;;;;4881033;29;20185;-70
2023/08/11 01:57:09;;;;;;;15.77;10.00;;;17.20;99.90;;;;;;4894734;29;20229;-70
2023/08/11 01:59:35;;;;;;;14.32;10.48;;;17.20;99.90;;;;;;4896876;29;20198;-73
2023/08/11 02:02:02;;;;;;;15.23;10.20;;;17.10;99.90;;;;;;4884458;29;20254;-72
2023/08/11 02:04:28;;;;;;;14.52;10.75;;;17.10;99.90;;;;;;4895446;29;20191;-72
2023/08/11 02:06:54;;;;;;;17.45;10.30;;;17.10;99.90;;;;;;4886083;29;20253;-70
2023/08/11 02:09:21;;;;;;;16.48;11.23;;;17.10;99.90;;;;;;4894625;29;20187;-70
2023/08/11 02:11:47;;;;;;;26.63;11.60;;;17.10;99.90;;;;;;4896032;29;20188;-70
2023/08/11 02:14:13;;;;;;;19.35;11.85;;;17.10;99.90;;;;;;4895124;29;20191;-71
2023/08/11 02:16:39;;;;;;;19.35;12.35;;;17.10;99.90;;;;;;4891882;29;20185;-71
2023/08/11 02:19:05;;;;;;;22.55;12.65;;;17.10;99.90;;;;;;4887769;29;20228;-71
2023/08/11 02:21:32;;;;;;;18.13;13.13;;;17.10;99.90;;;;;;4875224;29;20225;-71
2023/08/11 02:23:58;;;;;;;18.10;12.30;;;17.10;99.90;;;;;;4907062;29;20276;-72
2023/08/11 02:26:24;;;;;;;20.77;13.73;;;17.10;99.90;;;;;;4892805;29;20222;-73
2023/08/11 02:28:50;;;;;;;22.83;14.13;;;17.00;99.90;;;;;;4887885;29;20217;-71
2023/08/11 02:31:17;;;;;;;19.08;13.90;;;17.10;99.90;;;;;;4902876;29;20729;-72
2023/08/11 02:33:44;;;;;;;21.77;14.40;;;17.00;99.90;;;;;;4896706;29;20189;-72
2023/08/11 02:36:10;;;;;;;21.38;13.75;;;17.00;99.90;;;;;;4871922;29;20677;-72
2023/08/11 02:38:36;;;;;;;19.85;14.50;;;17.00;99.90;;;;;;4888844;29;20203;-70
2023/08/11 02:41:03;;;;;;;23.13;14.85;;;17.00;99.90;;;;;;4895493;29;20220;-74
2023/08/11 02:43:29;;;;;;;18.25;14.48;;;17.00;99.90;;;;;;4895140;29;20200;-71
2023/08/11 02:45:55;;;;;;;21.08;15.18;;;17.00;99.90;;;;;;4905894;29;20181;-72
2023/08/11 02:48:22;;;;;;;22.20;15.23;;;16.90;99.90;;;;;;4895433;29;20205;-74
2023/08/11 02:50:48;;;;;;;21.27;15.27;;;16.90;99.90;;;;;;4895452;29;20185;-72
2023/08/11 02:53:14;;;;;;;21.10;15.27;;;16.90;99.90;;;;;;4896424;29;20678;-71
2023/08/11 02:55:40;;;;;;;22.77;15.15;;;16.90;99.90;;;;;;4893526;29;20196;-71
2023/08/11 02:58:06;;;;;;;23.38;15.35;;;16.90;99.90;;;;;;4895079;29;20688;-73
2023/08/11 03:00:33;;;;;;;22.85;15.98;;;16.90;99.90;;;;;;4894175;29;20221;-71
2023/08/11 03:03:01;;;;;;;23.33;17.55;;;16.90;99.90;;;;;;4908015;29;20193;-71
2023/08/11 03:05:27;;;;;;;21.80;16.20;;;16.80;99.90;;;;;;4894553;29;20217;-72
2023/08/11 03:07:55;;;;;;;21.02;16.65;;;16.80;99.90;;;;;;4910040;29;20188;-71
2023/08/11 03:10:21;;;;;;;22.85;16.30;;;16.80;99.90;;;;;;4884531;29;20188;-71
2023/08/11 03:12:48;;;;;;;26.95;17.63;;;16.80;99.90;;;;;;4896318;29;20195;-68
2023/08/11 03:15:14;;;;;;;22.83;16.60;;;16.80;99.90;;;;;;4878501;29;20564;-66
2023/08/11 03:17:40;;;;;;;20.23;16.98;;;16.80;99.90;;;;;;4886900;29;20239;-67
2023/08/11 03:20:12;;;;;;;26.45;16.05;;;16.80;99.90;;;;;;4889642;29;20598;-66
2023/08/11 03:22:40;;;;;;;22.40;16.75;;;16.70;99.90;;;;;;4880145;29;20267;-68
2023/08/11 03:25:07;;;;;;;23.60;16.70;;;16.80;99.90;;;;;;4909829;29;20192;-68
2023/08/11 03:27:34;;;;;;;22.88;15.93;;;16.80;99.90;;;;;;4879685;29;20209;-67
2023/08/11 03:30:00;;;;;;;27.50;16.60;;;16.70;99.90;;;;;;4893312;29;20208;-67
2023/08/11 03:32:26;;;;;;;24.77;17.17;;;16.70;99.90;;;;;;4901547;29;20189;-68
2023/08/11 03:34:54;;;;;;;22.40;16.00;;;16.70;99.90;;;;;;4880799;29;20192;-68
2023/08/11 03:37:20;;;;;;;19.50;16.17;;;16.70;99.90;;;;;;4897638;29;20239;-67
2023/08/11 03:39:46;;;;;;;24.50;16.10;;;16.70;99.90;;;;;;4898114;29;20184;-67
2023/08/11 03:42:12;;;;;;;19.90;15.90;;;16.60;99.90;;;;;;4898398;29;20828;-68
2023/08/11 03:44:39;;;;;;;30.40;15.13;;;16.70;99.90;;;;;;4882126;29;20226;-69
2023/08/11 03:47:05;;;;;;;22.50;15.70;;;16.70;99.90;;;;;;4879831;29;20265;-67
2023/08/11 03:49:31;;;;;;;23.65;15.18;;;16.70;99.90;;;;;;4898503;29;20276;-67
2023/08/11 03:51:58;;;;;;;22.52;14.27;;;16.70;99.90;;;;;;4869865;29;20201;-67
2023/08/11 03:54:24;;;;;;;17.45;13.85;;;16.70;99.90;;;;;;4898643;29;20232;-67
2023/08/11 03:56:49;;;;;;;29.90;15.55;;;16.70;99.90;;;;;;4898809;29;20199;-67
2023/08/11 03:59:16;;;;;;;18.60;14.70;;;16.70;99.90;;;;;;4892756;29;20193;-68
2023/08/11 04:01:42;;;;;;;18.13;14.23;;;16.70;99.90;;;;;;4898072;29;20224;-67
2023/08/11 04:04:08;;;;;;;20.77;14.07;;;16.70;99.90;;;;;;4874408;29;20223;-67
2023/08/11 04:06:34;;;;;;;20.60;14.07;;;16.70;99.90;;;;;;4895496;29;20684;-67
2023/08/11 04:09:02;;;;;;;17.60;13.68;;;16.70;99.90;;;;;;4898070;29;20188;-66
2023/08/11 04:11:29;;;;;;;22.52;13.88;;;16.70;99.90;;;;;;4899691;29;20201;-67
2023/08/11 04:13:55;;;;;;;20.00;13.07;;;16.70;99.90;;;;;;4887696;29;20223;-67
2023/08/11 04:16:21;;;;;;;18.83;13.27;;;16.70;99.90;;;;;;4897835;29;20189;-67
2023/08/11 04:18:47;;;;;;;22.67;12.40;;;16.70;99.90;;;;;;4896346;29;20236;-67
2023/08/11 04:21:14;;;;;;;18.52;12.75;;;16.70;99.90;;;;;;4884852;29;20303;-67
2023/08/11 04:23:40;;;;;;;18.30;12.48;;;16.70;99.90;;;;;;4897401;29;20196;-67
2023/08/11 04:26:07;;;;;;;21.50;12.70;;;16.70;99.90;;;;;;4897788;29;20211;-66
2023/08/11 04:28:36;;;;;;;22.75;12.45;;;16.80;99.90;;;;;;4895399;29;20195;-66
2023/08/11 04:31:03;;;;;;;23.10;12.18;;;16.70;99.90;;;;;;4897966;29;20548;-66
2023/08/11 04:33:32;;;;;;;17.92;12.55;;;16.80;99.90;;;;;;4879442;29;20196;-67
2023/08/11 04:35:58;;;;;;;18.20;12.00;;;16.80;99.90;;;;;;4897379;29;20272;-67
2023/08/11 04:38:25;;;;;;;19.35;12.30;;;16.80;99.90;;;;;;4897300;29;20193;-66
2023/08/11 04:40:52;;;;;;;17.25;11.88;;;16.80;99.90;;;;;;4910909;29;20279;-67
2023/08/11 04:43:19;;;;;;;16.25;11.82;;;16.90;99.90;;;;;;4894687;29;20197;-67
2023/08/11 04:45:46;;;;;;;15.02;11.52;;;16.90;99.90;;;;;;4896964;29;20193;-67
2023/08/11 04:48:16;;;;;;;17.10;11.68;;;16.90;99.90;;;;;;4897606;29;20283;-67
2023/08/11 04:50:50;;;;;;;18.77;11.48;;;16.90;99.90;;;;;;4886872;29;20196;-67
2023/08/11 04:53:17;;;;;;;20.38;11.98;;;16.90;99.90;;;;;;4897142;29;20192;-66
2023/08/11 04:55:43;;;;;;;20.48;11.73;;;16.90;99.90;;;;;;4897067;29;20303;-66
2023/08/11 04:58:10;;;;;;;14.70;11.40;;;17.00;99.90;;;;;;4912327;29;20201;-67
2023/08/11 05:00:37;;;;;;;17.95;11.48;;;17.00;99.90;;;;;;4888355;29;20234;-68
2023/08/11 05:03:04;;;;;;;19.90;11.98;;;17.00;99.90;;;;;;4898551;29;20188;-67
2023/08/11 05:05:29;;;;;;;15.25;11.30;;;17.00;99.90;;;;;;4894031;29;20192;-66
2023/08/11 05:07:55;;;;;;;17.98;11.48;;;17.10;99.90;;;;;;4887326;29;20197;-67
2023/08/11 05:10:21;;;;;;;16.80;11.40;;;17.10;99.90;;;;;;4902149;29;20185;-68
2023/08/11 05:12:49;;;;;;;16.80;11.00;;;17.20;99.90;;;;;;4898074;29;20196;-67
2023/08/11 05:15:15;;;;;;;17.92;11.05;;;17.20;99.90;;;;;;4870480;29;20205;-68
2023/08/11 05:17:41;;;;;;;16.60;11.98;;;17.20;99.90;;;;;;4895297;29;20241;-65
2023/08/11 05:20:07;;;;;;;14.88;11.02;;;17.20;99.90;;;;;;4897289;29;20216;-67
2023/08/11 05:22:35;;;;;;;19.30;11.93;;;17.30;99.90;;;;;;4897271;29;20280;-67
2023/08/11 05:25:06;;;;;;;18.67;10.98;;;17.30;99.90;;;;;;4893036;29;20188;-68
2023/08/11 05:27:32;;;;;;;18.58;11.52;;;17.40;99.90;;;;;;4888977;29;20189;-67
2023/08/11 05:29:58;;;;;;;14.88;11.15;;;17.40;99.90;;;;;;4890214;29;20232;-67
2023/08/11 05:32:26;;;;;;;14.40;10.63;;;17.40;99.90;;;;;;4886037;29;20193;-67
2023/08/11 05:34:53;;;;;;;14.02;10.45;;;17.50;99.90;;;;;;4898083;29;20275;-67
2023/08/11 05:37:19;;;;;;;16.27;11.25;;;17.50;99.90;;;;;;4897037;29;20200;-67
2023/08/11 05:39:45;;;;;;;18.38;11.90;;;17.50;99.90;;;;;;4907955;29;20184;-67
2023/08/11 05:42:11;;;;;;;18.02;11.38;;;17.60;99.90;;;;;;4871668;29;20611;-67
2023/08/11 05:44:36;;;;;;;16.60;11.50;;;17.60;99.90;;;;;;4889951;29;20188;-68
2023/08/11 05:47:03;;;;;;;21.15;11.45;;;17.60;99.90;;;;;;4888923;29;20283;-68
2023/08/11 05:49:29;;;;;;;18.95;12.18;;;17.70;99.90;;;;;;4893631;29;20263;-67
2023/08/11 05:51:55;;;;;;;14.70;10.73;;;17.80;99.90;;;;;;4896278;29;20653;-67
2023/08/11 05:54:21;;;;;;;19.52;12.73;;;17.80;99.90;;;;;;4897507;29;20251;-68
2023/08/11 05:56:47;;;;;;;22.35;12.82;;;17.90;99.90;;;;;;4895309;29;20193;-66
2023/08/11 05:59:13;;;;;;;18.20;10.65;;;17.90;99.90;;;;;;4897350;29;20191;-68
2023/08/11 06:01:39;;;;;;;13.75;10.07;;;17.90;99.90;;;;;;4889413;29;20221;-67
2023/08/11 06:04:05;;;;;;;14.30;9.98;;;18.00;99.90;;;;;;4888104;29;20199;-66
2023/08/11 06:06:32;;;;;;;15.75;10.63;;;18.10;99.90;;;;;;4912057;29;20188;-67
2023/08/11 06:08:58;;;;;;;12.68;10.20;;;18.10;99.90;;;;;;4882461;29;20249;-67
2023/08/11 06:11:24;;;;;;;12.73;9.75;;;18.20;99.90;;;;;;4886228;29;20203;-67
2023/08/11 06:13:50;;;;;;;18.30;9.77;;;18.20;99.90;;;;;;4890832;29;20271;-66
2023/08/11 06:16:16;;;;;;;13.25;9.68;;;18.30;99.90;;;;;;4887784;29;20197;-67
2023/08/11 06:18:42;;;;;;;14.05;9.27;;;18.30;99.90;;;;;;4890757;29;20248;-67
2023/08/11 06:21:09;;;;;;;11.30;8.77;;;18.40;99.90;;;;;;4890865;29;20276;-66
2023/08/11 06:23:35;;;;;;;19.00;9.23;;;18.50;99.90;;;;;;4891551;29;20189;-67
2023/08/11 06:26:01;;;;;;;12.27;9.07;;;18.50;99.90;;;;;;4896143;29;20552;-67
2023/08/11 06:28:28;;;;;;;15.35;8.63;;;18.60;99.90;;;;;;4895974;29;20187;-66
2023/08/11 06:30:54;;;;;;;15.43;8.40;;;18.60;99.90;;;;;;4894467;29;20677;-67
2023/08/11 06:33:20;;;;;;;12.48;7.80;;;18.70;99.90;;;;;;4894923;29;20200;-68
2023/08/11 06:35:46;;;;;;;11.55;7.47;;;18.70;99.90;;;;;;4889703;29;20192;-67
2023/08/11 06:38:12;;;;;;;15.75;8.15;;;18.80;99.90;;;;;;4896007;29;20199;-67
2023/08/11 06:40:38;;;;;;;14.68;7.80;;;18.90;99.90;;;;;;4878599;29;20237;-68
2023/08/11 06:43:05;;;;;;;11.32;7.72;;;18.90;99.90;;;;;;4896677;29;20195;-67
2023/08/11 06:45:32;;;;;;;11.52;7.95;;;19.00;99.90;;;;;;4892048;29;20189;-67
2023/08/11 06:47:59;;;;;;;14.20;7.82;;;19.10;99.90;;;;;;4881828;29;20247;-68
2023/08/11 06:50:25;;;;;;;10.82;7.72;;;19.20;99.90;;;;;;4902001;29;20219;-68
2023/08/11 06:52:51;;;;;;;11.57;7.40;;;19.20;99.90;;;;;;4882084;29;20215;-67
2023/08/11 06:55:18;;;;;;;10.23;7.25;;;19.30;99.90;;;;;;4889841;29;20662;-67
2023/08/11 06:57:44;;;;;;;12.38;7.63;;;19.40;99.90;;;;;;4894932;29;20672;-68
2023/08/11 07:00:10;;;;;;;13.60;7.75;;;19.40;99.90;;;;;;4895039;29;20244;-66
2023/08/11 07:02:37;;;;;;;10.60;6.95;;;19.50;99.90;;;;;;4891330;29;20244;-68
2023/08/11 07:05:03;;;;;;;11.43;7.65;;;19.60;99.90;;;;;;4892397;29;20196;-69
2023/08/11 07:07:30;;;;;;;12.98;7.45;;;19.70;99.90;;;;;;4896956;29;20196;-67
2023/08/11 07:09:56;;;;;;;10.15;6.80;;;19.70;99.90;;;;;;4892033;29;20193;-66
2023/08/11 07:12:21;;;;;;;11.00;6.88;;;19.80;99.90;;;;;;4880000;29;20198;-67
2023/08/11 07:14:47;;;;;;;10.23;6.88;;;19.90;99.90;;;;;;4882214;29;20231;-68
2023/08/11 07:17:14;;;;;;;11.73;6.88;;;20.00;99.90;;;;;;4886937;29;20372;-69
2023/08/11 07:19:40;;;;;;;11.93;6.45;;;20.10;99.90;;;;;;4891703;29;20216;-68
2023/08/11 07:22:05;;;;;;;10.10;6.43;;;20.20;99.90;;;;;;4874372;29;20635;-67
2023/08/11 07:24:32;;;;;;;11.23;6.63;;;20.30;99.90;;;;;;4892819;29;20280;-67
2023/08/11 07:26:57;;;;;;;12.30;6.57;;;20.40;99.90;;;;;;4887079;29;20284;-67
2023/08/11 07:29:23;;;;;;;12.90;6.30;;;20.40;99.90;;;;;;4894747;29;20193;-67
2023/08/11 07:31:49;;;;;;;12.80;6.32;;;20.50;99.90;;;;;;4891717;29;20589;-67
2023/08/11 07:34:16;;;;;;;12.50;5.55;;;20.60;99.90;;;;;;4896419;29;20189;-67
2023/08/11 07:36:43;;;;;;;9.63;6.07;;;20.60;99.90;;;;;;4895416;29;20781;-67
2023/08/11 07:39:09;;;;;;;11.00;6.47;;;20.70;99.90;;;;;;4895204;29;20732;-67
2023/08/11 07:41:38;;;;;;;9.10;5.82;;;20.80;99.90;;;;;;4894547;29;20220;-66
2023/08/11 07:44:04;;;;;;;12.05;6.10;;;20.80;99.90;;;;;;4884084;29;20204;-66
2023/08/11 07:46:30;;;;;;;7.20;5.47;;;20.90;99.90;;;;;;4896071;29;20272;-67
2023/08/11 07:48:56;;;;;;;8.63;6.10;;;21.00;99.90;;;;;;4894364;29;20192;-66
2023/08/11 07:51:22;;;;;;;11.02;5.60;;;21.10;99.90;;;;;;4896015;29;20207;-67
2023/08/11 07:53:49;;;;;;;11.05;6.45;;;21.20;99.90;;;;;;4894945;29;20196;-64
2023/08/11 07:56:15;;;;;;;7.78;5.82;;;21.20;99.90;;;;;;4891303;29;20224;-66
2023/08/11 07:58:41;;;;;;;9.40;5.25;;;21.30;99.90;;;;;;4896069;29;20215;-66
2023/08/11 08:01:10;;;;;;;9.45;6.22;;;21.40;99.90;;;;;;4878399;29;20221;-66
2023/08/11 08:03:36;;;;;;;10.13;5.82;;;21.40;99.90;;;;;;4891924;29;20189;-66
2023/08/11 08:06:04;;;;;;;10.13;5.68;;;21.50;99.90;;;;;;4893789;29;20618;-66
2023/08/11 08:08:33;;;;;;;10.40;5.70;;;21.60;99.90;;;;;;4894855;29;20202;-66
2023/08/11 08:11:01;;;;;;;11.05;5.85;;;21.70;99.90;;;;;;4895236;29;20193;-67
2023/08/11 08:13:28;;;;;;;11.40;5.65;;;21.70;99.90;;;;;;4887289;29;20296;-66
2023/08/11 08:15:53;;;;;;;10.77;5.85;;;21.70;99.90;;;;;;4886078;29;20205;-67
2023/08/11 08:18:20;;;;;;;10.55;5.82;;;21.80;99.90;;;;;;4883960;29;20260;-67
2023/08/11 08:20:46;;;;;;;11.40;5.50;;;21.80;99.90;;;;;;4887808;29;20237;-67
2023/08/11 08:23:12;;;;;;;9.45;5.22;;;21.90;99.90;;;;;;4895271;29;20197;-67
2023/08/11 08:25:40;;;;;;;10.75;5.35;;;21.90;99.90;;;;;;4893344;29;20214;-67
2023/08/11 08:28:06;;;;;;;10.68;5.43;;;22.00;99.90;;;;;;4894860;29;20188;-67
2023/08/11 08:30:32;;;;;;;9.98;6.53;;;22.00;99.90;;;;;;4886445;29;20189;-67
2023/08/11 08:32:58;;;;;;;12.13;5.55;;;22.10;99.90;;;;;;4887252;29;20193;-67
2023/08/11 08:35:24;;;;;;;10.18;5.55;;;22.20;99.90;;;;;;4902191;29;20650;-67
2023/08/11 08:37:50;;;;;;;9.63;5.45;;;22.20;99.90;;;;;;4893350;29;20188;-67
2023/08/11 08:40:17;;;;;;;9.13;5.50;;;22.30;99.90;;;;;;4912549;29;20217;-67
2023/08/11 08:42:44;;;;;;;11.65;5.55;;;22.40;99.90;;;;;;4898061;29;20192;-67
2023/08/11 08:45:10;;;;;;;12.13;5.93;;;22.40;99.90;;;;;;4899129;29;20651;-66
2023/08/11 08:47:37;;;;;;;10.50;5.80;;;22.50;99.90;;;;;;4899365;29;20223;-67
2023/08/11 08:50:04;;;;;;;11.30;5.40;;;22.60;99.90;;;;;;4897613;29;20232;-68
2023/08/11 08:52:32;;;;;;;8.32;5.35;;;22.60;99.90;;;;;;4898514;29;20216;-68
2023/08/11 08:55:00;;;;;;;19.38;5.50;;;22.70;99.90;;;;;;4896679;29;20203;-66
2023/08/11 08:57:26;;;;;;;12.10;5.32;;;22.70;99.90;;;;;;4897429;29;20189;-66
2023/08/11 08:59:53;;;;;;;12.25;5.30;;;22.80;99.90;;;;;;4898227;29;20196;-67
2023/08/11 09:02:20;;;;;;;14.88;5.90;;;22.80;99.90;;;;;;4891414;29;20195;-68
2023/08/11 09:04:47;;;;;;;11.68;5.00;;;22.90;99.90;;;;;;4897814;29;20193;-68
2023/08/11 09:07:14;;;;;;;9.57;5.32;;;22.90;99.90;;;;;;4896585;29;20197;-67
2023/08/11 09:09:40;;;;;;;13.07;4.97;;;23.00;99.90;;;;;;4895509;29;20268;-67
2023/08/11 09:12:06;;;;;;;10.82;4.90;;;23.00;99.90;;;;;;4911844;29;20645;-75
2023/08/11 09:14:32;;;;;;;10.95;5.80;;;23.10;99.90;;;;;;4878598;29;20279;-72
2023/08/11 09:17:01;;;;;;;8.82;4.75;;;23.10;99.90;;;;;;4894142;29;20241;-71
2023/08/11 09:19:28;;;;;;;11.80;4.80;;;23.30;99.90;;;;;;4894225;29;20189;-70
2023/08/11 09:21:54;;;;;;;10.13;4.57;;;23.30;99.90;;;;;;4896760;29;20652;-71
2023/08/11 09:24:22;;;;;;;9.85;4.70;;;23.30;99.90;;;;;;4897561;29;20276;-73
2023/08/11 09:26:52;;;;;;;10.55;4.60;;;23.40;99.90;;;;;;4881295;29;20740;-68
2023/08/11 09:29:19;;;;;;;7.15;4.45;;;23.50;99.90;;;;;;4896155;29;20595;-71
2023/08/11 09:31:52;;;;;;;11.07;4.72;;;23.60;99.90;;;;;;4892076;29;20228;-65
2023/08/11 09:34:19;;;;;;;8.68;4.60;;;23.70;99.90;;;;;;4879131;29;20212;-71
2023/08/11 09:36:48;;;;;;;9.82;4.28;;;23.80;99.90;;;;;;4897979;29;20281;-72
2023/08/11 09:39:15;;;;;;;10.00;4.35;;;23.80;99.90;;;;;;4894299;29;20189;-68
2023/08/11 09:41:47;;;;;;;6.85;4.22;;;23.90;99.90;;;;;;4880604;29;20796;-73
2023/08/11 09:44:17;;;;;;;11.57;5.00;;;24.00;99.90;;;;;;4891100;29;20227;-71
2023/08/11 09:46:44;;;;;;;8.90;4.10;;;24.00;99.90;;;;;;4884619;29;20216;-67
2023/08/11 09:49:10;;;;;;;12.65;4.72;;;24.10;99.90;;;;;;4887898;29;20203;-73
2023/08/11 09:51:37;;;;;;;8.07;4.32;;;24.10;99.90;;;;;;4888202;29;20189;-69
2023/08/11 09:54:10;;;;;;;10.52;3.83;;;24.20;99.90;;;;;;4890274;29;20188;-66
2023/08/11 09:56:42;;;;;;;7.63;4.03;;;24.30;99.90;;;;;;4897317;29;20276;-68
2023/08/11 09:59:20;;;;;;;6.75;3.90;;;24.30;99.90;;;;;;4896067;29;20196;-68
2023/08/11 10:01:47;;;;;;;12.65;4.32;;;24.40;99.90;;;;;;4905538;29;20216;-67
2023/08/11 10:04:39;;;;;;;7.85;3.90;;;24.50;99.90;;;;;;4887045;29;20189;-67
2023/08/11 10:07:12;;;;;;;6.32;3.92;;;24.50;99.90;;;;;;4895092;29;20656;-67
2023/08/11 10:09:41;;;;;;;8.93;3.88;;;24.60;99.90;;;;;;4909345;29;20190;-67
2023/08/11 10:12:08;;;;;;;6.38;3.42;;;24.60;99.90;;;;;;4891675;29;20190;-66
2023/08/11 10:14:36;;;;;;;7.30;3.50;;;24.70;99.90;;;;;;4879945;29;20197;-67
2023/08/11 10:17:03;;;;;;;6.88;4.10;;;24.80;99.90;;;;;;4892539;29;20245;-67
2023/08/11 10:19:30;;;;;;;9.82;3.90;;;25.00;99.90;;;;;;4880893;29;20186;-67
2023/08/11 10:21:57;;;;;;;7.55;3.80;;;25.20;99.90;;;;;;4893963;29;20303;-67
2023/08/11 10:24:24;;;;;;;9.45;3.25;;;25.40;99.90;;;;;;4882202;29;20638;-66
2023/08/11 10:26:51;;;;;;;10.85;3.72;;;25.60;99.90;;;;;;4884186;29;20188;-67
2023/08/11 10:29:18;;;;;;;7.43;3.50;;;25.70;99.90;;;;;;4907877;29;20193;-67
2023/08/11 10:31:55;;;;;;;7.32;3.33;;;25.90;99.90;;;;;;4883770;29;20200;-67
2023/08/11 10:34:23;;;;;;;7.88;3.95;;;26.10;99.90;;;;;;4880808;29;20241;-67
2023/08/11 10:36:50;;;;;;;10.40;3.75;;;26.20;99.90;;;;;;4910580;29;20184;-67
2023/08/11 10:39:20;;;;;;;6.15;3.85;;;26.20;99.90;;;;;;4896889;29;20189;-67
2023/08/11 10:41:47;;;;;;;7.05;3.40;;;26.30;99.90;;;;;;4895274;29;20223;-67
2023/08/11 10:44:19;;;;;;;9.63;3.35;;;26.40;99.50;;;;;;4883723;29;20313;-67
2023/08/11 10:46:46;;;;;;;5.30;3.20;;;26.50;98.90;;;;;;4891381;29;20219;-67
2023/08/11 10:49:12;;;;;;;8.15;3.30;;;26.60;99.10;;;;;;4882358;29;20222;-67
2023/08/11 10:51:39;;;;;;;8.73;3.47;;;26.60;99.00;;;;;;4880017;29;20197;-67
2023/08/11 10:54:09;;;;;;;6.40;3.30;;;26.70;98.70;;;;;;4890901;29;20195;-67
2023/08/11 10:56:41;;;;;;;6.38;3.30;;;26.60;98.40;;;;;;4883869;29;20185;-68
2023/08/11 10:59:09;;;;;;;7.65;3.47;;;26.70;98.30;;;;;;4896531;29;20184;-68
2023/08/11 11:01:36;;;;;;;9.52;4.22;;;26.70;98.10;;;;;;4896757;29;20303;-68
2023/08/11 11:04:04;;;;;;;11.48;3.22;;;26.60;98.30;;;;;;4902417;29;20192;-67
2023/08/11 11:06:30;;;;;;;6.05;3.10;;;26.70;98.10;;;;;;4880033;29;20296;-67
2023/08/11 11:08:56;;;;;;;7.10;3.20;;;26.80;98.10;;;;;;4895116;29;20275;-67
2023/08/11 11:11:22;;;;;;;8.73;3.40;;;26.80;97.80;;;;;;4895136;29;20279;-66
2023/08/11 11:13:48;;;;;;;5.20;3.28;;;26.80;97.60;;;;;;4886437;29;20284;-67
2023/08/11 11:16:14;;;;;;;7.70;3.80;;;26.80;97.40;;;;;;4885859;29;20256;-69
2023/08/11 11:18:42;;;;;;;5.60;3.47;;;26.80;97.20;;;;;;4886842;29;20312;-68
2023/08/11 11:21:11;;;;;;;8.93;3.30;;;26.80;97.10;;;;;;4893871;29;20252;-66
2023/08/11 11:23:37;;;;;;;7.47;3.30;;;26.90;97.20;;;;;;4889941;29;20197;-67
2023/08/11 11:26:03;;;;;;;6.32;3.13;;;26.90;96.90;;;;;;4879721;29;20207;-68
2023/08/11 11:28:29;;;;;;;6.00;3.40;;;27.00;96.80;;;;;;4883037;29;20584;-68
2023/08/11 11:30:55;;;;;;;8.75;3.90;;;27.00;96.60;;;;;;4877433;29;20710;-67
2023/08/11 11:33:22;;;;;;;4.60;2.95;;;27.00;96.30;;;;;;4894228;29;20196;-67
2023/08/11 11:35:48;;;;;;;6.32;3.35;;;27.00;96.20;;;;;;4890283;29;20201;-66
2023/08/11 11:38:14;;;;;;;7.30;3.40;;;27.00;96.20;;;;;;4898536;29;20183;-68
2023/08/11 11:40:40;;;;;;;7.18;2.90;;;27.10;96.00;;;;;;4884426;29;20311;-67
2023/08/11 11:43:06;;;;;;;7.22;3.30;;;27.20;95.90;;;;;;4879357;29;20658;-67
2023/08/11 11:45:32;;;;;;;6.80;3.50;;;27.20;95.80;;;;;;4889163;29;20275;-67
2023/08/11 11:47:58;;;;;;;8.93;3.40;;;27.40;95.80;;;;;;4887766;29;20197;-64
2023/08/11 11:50:29;;;;;;;6.63;3.35;;;27.50;95.50;;;;;;4878012;29;20189;-68
2023/08/11 11:52:55;;;;;;;10.27;3.15;;;27.50;95.10;;;;;;4900141;29;20721;-68
2023/08/11 11:55:20;;;;;;;8.35;3.22;;;27.60;94.90;;;;;;4897851;29;20271;-67
2023/08/11 11:57:47;;;;;;;7.72;3.50;;;27.60;94.90;;;;;;4892524;29;20199;-68
2023/08/11 12:00:16;;;;;;;8.60;3.17;;;27.60;95.10;;;;;;4891966;29;20192;-68
2023/08/11 12:02:44;;;;;;;6.60;3.20;;;27.60;94.90;;;;;;4898264;29;20712;-69
2023/08/11 12:05:10;;;;;;;8.50;3.38;;;27.70;94.60;;;;;;4896911;29;20192;-68
2023/08/11 12:07:36;;;;;;;10.02;3.30;;;27.70;94.30;;;;;;4899491;29;20196;-68
2023/08/11 12:10:06;;;;;;;8.52;3.60;;;27.80;94.00;;;;;;4891296;29;20718;-67
2023/08/11 12:12:32;;;;;;;9.00;3.97;;;27.80;93.90;;;;;;4890065;29;20189;-67
2023/08/11 12:15:06;;;;;;;9.00;3.03;;;27.90;94.20;;;;;;4883525;29;20906;-68
2023/08/11 12:17:34;;;;;;;10.13;4.97;;;27.90;94.40;;;;;;4889601;29;20236;-69
2023/08/11 12:20:10;;;;;;;10.18;3.05;;;27.90;94.40;;;;;;4888386;29;20188;-67
2023/08/11 12:22:36;;;;;;;13.07;3.17;;;28.00;94.10;;;;;;4908585;29;20187;-67
2023/08/11 12:25:03;;;;;;;5.55;2.97;;;28.10;93.90;;;;;;4885403;29;20325;-68
2023/08/11 12:27:29;;;;;;;9.68;3.40;;;28.20;93.30;;;;;;4895951;29;20279;-67
2023/08/11 12:29:55;;;;;;;5.70;2.78;;;28.40;93.20;;;;;;4887315;29;20211;-68
2023/08/11 12:32:21;;;;;;;14.95;2.85;;;28.40;92.90;;;;;;4896515;29;20217;-67
2023/08/11 12:34:47;;;;;;;7.30;2.97;;;28.50;92.50;;;;;;4882186;29;20193;-66